NFC55L EDDP-LGAV
Flight info
| Callsign | NFC55L |
|---|---|
| Flight time | N/A |
| Altitude | 35000 |
| Route | DRN2E/08R DRN Z21 OMELO DCT EVIKU DCT PEPIK DCT XOMBA DCT KEROP DCT XENIT DCT IBISI DCT MAKED DCT SKP UM749 ROPOX ROPOX1Q |
| Aircraft | B77L/H-SDE1E2E3FGHIJ2J3J4J5M1RWXY/LB1D1 |
Departure
| Time | N/A |
|---|---|
| Airport | Leipzig/Halle Airport (EDDP) |
Arrival
| Time | 2026-05-06 20:32 |
|---|---|
| Airport | Athens Eleftherios Venizelos International Airport (LGAV) |
| Time | Latitude | Longitude | Altitude | Speed | Heading |
|---|---|---|---|---|---|
| 2026-05-06 19:06 | 47.52907 | 18.38031 | 34873 ft | 497 kts | 150° |
| 2026-05-06 19:06 | 47.50052 | 18.40911 | 34875 ft | 497 kts | 150° |
| 2026-05-06 19:07 | 47.44331 | 18.46670 | 34873 ft | 497 kts | 150° |
| 2026-05-06 19:07 | 47.38596 | 18.52428 | 34885 ft | 498 kts | 150° |
| 2026-05-06 19:08 | 47.32867 | 18.58166 | 34883 ft | 497 kts | 149° |
| 2026-05-06 19:08 | 47.27133 | 18.63893 | 34892 ft | 497 kts | 149° |
| 2026-05-06 19:09 | 47.21392 | 18.69609 | 34899 ft | 498 kts | 149° |
| 2026-05-06 19:09 | 47.15679 | 18.75285 | 34894 ft | 499 kts | 149° |
| 2026-05-06 19:10 | 47.09923 | 18.80987 | 34901 ft | 499 kts | 149° |
| 2026-05-06 19:10 | 47.04180 | 18.86663 | 34904 ft | 499 kts | 149° |
| 2026-05-06 19:11 | 46.98416 | 18.92345 | 34901 ft | 499 kts | 149° |
| 2026-05-06 19:11 | 46.92648 | 18.98015 | 34903 ft | 499 kts | 149° |
| 2026-05-06 19:12 | 46.86873 | 19.03675 | 34912 ft | 500 kts | 149° |
| 2026-05-06 19:12 | 46.81102 | 19.09318 | 34914 ft | 500 kts | 149° |
| 2026-05-06 19:13 | 46.75321 | 19.14957 | 34916 ft | 500 kts | 149° |
| 2026-05-06 19:13 | 46.69534 | 19.20585 | 34920 ft | 500 kts | 149° |
| 2026-05-06 19:14 | 46.63745 | 19.26202 | 34923 ft | 500 kts | 149° |
| 2026-05-06 19:14 | 46.58000 | 19.31761 | 34921 ft | 500 kts | 149° |
| 2026-05-06 19:15 | 46.52203 | 19.37356 | 34914 ft | 500 kts | 149° |
| 2026-05-06 19:15 | 46.46411 | 19.42932 | 34932 ft | 499 kts | 149° |
| 2026-05-06 19:16 | 46.40617 | 19.48495 | 34930 ft | 499 kts | 149° |
| 2026-05-06 19:16 | 46.34814 | 19.54053 | 34918 ft | 499 kts | 149° |
| 2026-05-06 19:17 | 46.29020 | 19.59589 | 34925 ft | 500 kts | 149° |
| 2026-05-06 19:17 | 46.23210 | 19.65126 | 34920 ft | 500 kts | 149° |
| 2026-05-06 19:18 | 46.17299 | 19.70418 | 34916 ft | 497 kts | 156° |
| 2026-05-06 19:18 | 46.10864 | 19.74509 | 34922 ft | 495 kts | 160° |
| 2026-05-06 19:19 | 46.04509 | 19.78356 | 34921 ft | 496 kts | 160° |
| 2026-05-06 19:19 | 45.98153 | 19.82246 | 34924 ft | 496 kts | 160° |
| 2026-05-06 19:20 | 45.91799 | 19.86163 | 34918 ft | 496 kts | 160° |
| 2026-05-06 19:21 | 45.79589 | 19.93679 | 34919 ft | 498 kts | 160° |
| 2026-05-06 19:21 | 45.73210 | 19.97588 | 34925 ft | 498 kts | 160° |
| 2026-05-06 19:22 | 45.66827 | 20.01489 | 34925 ft | 499 kts | 160° |
| 2026-05-06 19:22 | 45.60473 | 20.05363 | 34921 ft | 499 kts | 160° |
| 2026-05-06 19:23 | 45.54078 | 20.09252 | 34916 ft | 500 kts | 160° |
| 2026-05-06 19:23 | 45.47664 | 20.13144 | 34912 ft | 500 kts | 160° |
| 2026-05-06 19:24 | 45.41247 | 20.17027 | 34914 ft | 500 kts | 160° |
| 2026-05-06 19:24 | 45.34836 | 20.20896 | 34916 ft | 501 kts | 160° |
| 2026-05-06 19:25 | 45.28462 | 20.24735 | 34912 ft | 502 kts | 160° |
| 2026-05-06 19:25 | 45.22006 | 20.28612 | 34912 ft | 503 kts | 161° |
| 2026-05-06 19:26 | 45.15549 | 20.32481 | 34909 ft | 503 kts | 161° |
| 2026-05-06 19:26 | 45.09101 | 20.36336 | 34912 ft | 504 kts | 161° |
| 2026-05-06 19:27 | 45.02677 | 20.40166 | 34917 ft | 504 kts | 161° |
| 2026-05-06 19:27 | 44.96167 | 20.44038 | 34919 ft | 505 kts | 161° |
| 2026-05-06 19:28 | 44.89710 | 20.47869 | 34912 ft | 507 kts | 161° |
| 2026-05-06 19:28 | 44.83204 | 20.51719 | 34912 ft | 507 kts | 161° |
| 2026-05-06 19:29 | 44.76689 | 20.55566 | 34918 ft | 509 kts | 161° |
| 2026-05-06 19:29 | 44.70138 | 20.59424 | 34917 ft | 509 kts | 161° |
| 2026-05-06 19:30 | 44.63592 | 20.63270 | 34922 ft | 510 kts | 161° |
| 2026-05-06 19:30 | 44.57075 | 20.67090 | 34922 ft | 511 kts | 161° |
| 2026-05-06 19:31 | 44.50502 | 20.70935 | 34926 ft | 511 kts | 161° |
| 2026-05-06 19:31 | 44.40637 | 20.76685 | 34930 ft | 513 kts | 161° |
| 2026-05-06 19:32 | 44.34028 | 20.80528 | 34927 ft | 514 kts | 161° |
| 2026-05-06 19:32 | 44.27462 | 20.84534 | 34930 ft | 515 kts | 159° |
| 2026-05-06 19:33 | 44.21023 | 20.88794 | 34922 ft | 516 kts | 158° |
| 2026-05-06 19:33 | 44.14523 | 20.93098 | 34922 ft | 516 kts | 158° |
| 2026-05-06 19:34 | 44.08016 | 20.97336 | 34923 ft | 516 kts | 159° |
| 2026-05-06 19:34 | 44.01498 | 21.01541 | 34935 ft | 517 kts | 159° |
| 2026-05-06 19:35 | 43.94963 | 21.05745 | 34929 ft | 516 kts | 159° |
| 2026-05-06 19:35 | 43.88484 | 21.09907 | 34930 ft | 516 kts | 159° |
| 2026-05-06 19:36 | 43.81958 | 21.14090 | 34938 ft | 517 kts | 159° |
| 2026-05-06 19:36 | 43.75418 | 21.18273 | 34935 ft | 518 kts | 159° |
| 2026-05-06 19:37 | 43.68881 | 21.22443 | 34942 ft | 518 kts | 158° |
| 2026-05-06 19:37 | 43.63431 | 21.25912 | 34938 ft | 518 kts | 158° |
| 2026-05-06 19:38 | 43.55763 | 21.30782 | 34950 ft | 519 kts | 158° |
| 2026-05-06 19:38 | 43.49233 | 21.34918 | 34956 ft | 519 kts | 158° |
| 2026-05-06 19:39 | 43.42660 | 21.39071 | 34964 ft | 520 kts | 158° |
| 2026-05-06 19:39 | 43.36088 | 21.43213 | 34970 ft | 520 kts | 158° |
| 2026-05-06 19:40 | 43.29498 | 21.47358 | 34977 ft | 520 kts | 158° |
| 2026-05-06 19:40 | 43.22913 | 21.51489 | 34984 ft | 520 kts | 158° |
| 2026-05-06 19:41 | 43.16361 | 21.55590 | 34986 ft | 521 kts | 158° |
| 2026-05-06 19:41 | 43.09760 | 21.59712 | 34988 ft | 521 kts | 158° |
| 2026-05-06 19:42 | 43.03147 | 21.63833 | 35000 ft | 522 kts | 158° |
| 2026-05-06 19:42 | 42.96536 | 21.67934 | 34999 ft | 522 kts | 159° |
| 2026-05-06 19:43 | 42.89726 | 21.71367 | 35001 ft | 521 kts | 164° |
| 2026-05-06 19:43 | 42.82842 | 21.74517 | 35004 ft | 522 kts | 164° |
| 2026-05-06 19:44 | 42.76001 | 21.77660 | 35012 ft | 522 kts | 163° |
| 2026-05-06 19:44 | 42.69125 | 21.80853 | 35007 ft | 523 kts | 163° |
| 2026-05-06 19:45 | 42.62240 | 21.84057 | 35009 ft | 523 kts | 163° |
| 2026-05-06 19:45 | 42.55361 | 21.87252 | 35007 ft | 523 kts | 163° |
| 2026-05-06 19:46 | 42.48482 | 21.90435 | 35019 ft | 523 kts | 164° |
| 2026-05-06 19:46 | 42.41567 | 21.93627 | 35013 ft | 524 kts | 164° |
| 2026-05-06 19:47 | 42.34712 | 21.96784 | 35013 ft | 524 kts | 164° |
| 2026-05-06 19:47 | 42.27812 | 21.99954 | 35012 ft | 524 kts | 164° |
| 2026-05-06 19:48 | 42.20875 | 22.03133 | 35018 ft | 524 kts | 164° |
| 2026-05-06 19:48 | 42.13963 | 22.06294 | 35018 ft | 525 kts | 164° |
| 2026-05-06 19:49 | 42.07036 | 22.09454 | 35019 ft | 526 kts | 164° |
| 2026-05-06 19:49 | 42.00103 | 22.12610 | 35014 ft | 525 kts | 164° |
| 2026-05-06 19:50 | 41.93187 | 22.15751 | 35015 ft | 525 kts | 164° |
| 2026-05-06 19:50 | 41.86261 | 22.18889 | 35020 ft | 526 kts | 164° |
| 2026-05-06 19:51 | 41.79320 | 22.22027 | 35024 ft | 526 kts | 164° |
| 2026-05-06 19:51 | 41.72424 | 22.25137 | 35024 ft | 526 kts | 164° |
| 2026-05-06 19:52 | 41.65480 | 22.28263 | 35023 ft | 526 kts | 164° |
| 2026-05-06 19:52 | 41.58528 | 22.31384 | 35038 ft | 527 kts | 164° |
| 2026-05-06 19:53 | 41.51574 | 22.34498 | 35034 ft | 527 kts | 164° |
| 2026-05-06 19:53 | 41.44600 | 22.37614 | 35024 ft | 528 kts | 164° |
| 2026-05-06 19:54 | 41.37670 | 22.40707 | 35050 ft | 529 kts | 164° |
| 2026-05-06 19:54 | 41.30698 | 22.43811 | 35051 ft | 528 kts | 164° |
| 2026-05-06 19:55 | 41.23720 | 22.46908 | 35048 ft | 529 kts | 164° |
| 2026-05-06 19:55 | 41.16728 | 22.50006 | 35055 ft | 530 kts | 164° |
| 2026-05-06 19:56 | 41.10943 | 22.52735 | 35051 ft | 532 kts | 159° |
| 2026-05-06 19:56 | 41.03010 | 22.57356 | 35057 ft | 533 kts | 158° |
| 2026-05-06 19:57 | 40.96225 | 22.61357 | 35051 ft | 533 kts | 158° |
| 2026-05-06 19:57 | 40.90588 | 22.64643 | 35059 ft | 533 kts | 159° |
| 2026-05-06 19:58 | 40.83785 | 22.68573 | 35057 ft | 533 kts | 159° |
| 2026-05-06 19:58 | 40.76981 | 22.72486 | 35056 ft | 534 kts | 159° |
| 2026-05-06 19:59 | 40.70163 | 22.76402 | 35044 ft | 534 kts | 159° |
| 2026-05-06 19:59 | 40.63393 | 22.80284 | 35046 ft | 534 kts | 159° |
| 2026-05-06 20:00 | 40.56573 | 22.84187 | 35049 ft | 534 kts | 159° |
| 2026-05-06 20:00 | 40.49751 | 22.88081 | 35047 ft | 535 kts | 159° |
| 2026-05-06 20:01 | 40.42924 | 22.91970 | 35048 ft | 535 kts | 159° |
| 2026-05-06 20:01 | 40.36085 | 22.95857 | 35044 ft | 535 kts | 159° |
| 2026-05-06 20:02 | 40.29252 | 22.99732 | 35052 ft | 535 kts | 159° |
| 2026-05-06 20:02 | 40.22461 | 23.03575 | 35053 ft | 535 kts | 159° |
| 2026-05-06 20:03 | 40.15629 | 23.07432 | 35053 ft | 535 kts | 159° |
| 2026-05-06 20:03 | 40.08801 | 23.11279 | 35050 ft | 534 kts | 159° |
| 2026-05-06 20:04 | 40.02005 | 23.15101 | 35040 ft | 529 kts | 159° |
| 2026-05-06 20:04 | 39.95262 | 23.18883 | 35043 ft | 525 kts | 159° |
| 2026-05-06 20:05 | 39.88559 | 23.22635 | 35046 ft | 523 kts | 159° |
| 2026-05-06 20:05 | 39.81870 | 23.26370 | 35050 ft | 523 kts | 158° |
| 2026-05-06 20:06 | 39.75222 | 23.30075 | 35050 ft | 523 kts | 158° |
| 2026-05-06 20:06 | 39.68530 | 23.33797 | 35048 ft | 522 kts | 158° |
| 2026-05-06 20:07 | 39.61850 | 23.37505 | 35043 ft | 521 kts | 158° |
| 2026-05-06 20:07 | 39.55181 | 23.41199 | 35047 ft | 521 kts | 158° |
| 2026-05-06 20:08 | 39.48508 | 23.44887 | 35043 ft | 521 kts | 158° |
| 2026-05-06 20:08 | 39.41885 | 23.48540 | 35038 ft | 521 kts | 158° |
| 2026-05-06 20:09 | 39.35217 | 23.52211 | 35029 ft | 520 kts | 158° |
| 2026-05-06 20:09 | 39.28608 | 23.55843 | 34941 ft | 510 kts | 158° |
| 2026-05-06 20:10 | 39.25346 | 23.57632 | 34338 ft | 513 kts | 158° |
| 2026-05-06 20:10 | 39.22031 | 23.59432 | 33441 ft | 515 kts | 160° |
| 2026-05-06 20:10 | 39.18644 | 23.60915 | 32550 ft | 513 kts | 166° |
| 2026-05-06 20:10 | 39.15179 | 23.62016 | 31656 ft | 512 kts | 171° |
| 2026-05-06 20:11 | 39.11658 | 23.62688 | 30737 ft | 511 kts | 176° |
| 2026-05-06 20:11 | 39.08128 | 23.63152 | 30021 ft | 508 kts | 176° |
| 2026-05-06 20:11 | 39.04631 | 23.63608 | 29304 ft | 503 kts | 176° |
| 2026-05-06 20:11 | 39.01169 | 23.64087 | 28671 ft | 497 kts | 175° |
| 2026-05-06 20:12 | 38.97796 | 23.64579 | 28100 ft | 491 kts | 175° |
| 2026-05-06 20:12 | 38.94429 | 23.65078 | 27543 ft | 485 kts | 175° |
| 2026-05-06 20:12 | 38.91095 | 23.65572 | 26960 ft | 480 kts | 175° |
| 2026-05-06 20:12 | 38.87782 | 23.66062 | 26371 ft | 476 kts | 175° |
| 2026-05-06 20:13 | 38.84507 | 23.66546 | 25809 ft | 472 kts | 175° |
| 2026-05-06 20:13 | 38.81260 | 23.67024 | 25248 ft | 468 kts | 175° |
| 2026-05-06 20:13 | 38.78025 | 23.67500 | 24687 ft | 465 kts | 175° |
| 2026-05-06 20:13 | 38.74817 | 23.67971 | 24116 ft | 463 kts | 175° |
| 2026-05-06 20:14 | 38.71624 | 23.68440 | 23550 ft | 461 kts | 175° |
| 2026-05-06 20:14 | 38.68451 | 23.68905 | 22904 ft | 458 kts | 175° |
| 2026-05-06 20:14 | 38.65291 | 23.69369 | 22329 ft | 454 kts | 175° |
| 2026-05-06 20:14 | 38.62162 | 23.69828 | 21784 ft | 450 kts | 175° |
| 2026-05-06 20:15 | 38.59065 | 23.70282 | 21239 ft | 446 kts | 175° |
| 2026-05-06 20:15 | 38.56026 | 23.70726 | 20724 ft | 443 kts | 175° |
| 2026-05-06 20:15 | 38.52985 | 23.71171 | 20204 ft | 439 kts | 175° |
| 2026-05-06 20:15 | 38.49957 | 23.71613 | 19686 ft | 436 kts | 175° |
| 2026-05-06 20:16 | 38.46954 | 23.72050 | 19159 ft | 433 kts | 175° |
| 2026-05-06 20:16 | 38.43965 | 23.72485 | 18651 ft | 430 kts | 175° |
| 2026-05-06 20:16 | 38.40991 | 23.72919 | 18075 ft | 428 kts | 175° |
| 2026-05-06 20:16 | 38.38040 | 23.73348 | 17509 ft | 425 kts | 175° |
| 2026-05-06 20:17 | 38.35116 | 23.73773 | 16981 ft | 420 kts | 175° |
| 2026-05-06 20:17 | 38.32224 | 23.74194 | 16455 ft | 416 kts | 175° |
| 2026-05-06 20:17 | 38.29364 | 23.74609 | 15966 ft | 412 kts | 175° |
| 2026-05-06 20:17 | 38.26527 | 23.75021 | 15453 ft | 408 kts | 175° |
| 2026-05-06 20:18 | 38.23712 | 23.75428 | 14958 ft | 404 kts | 175° |
| 2026-05-06 20:18 | 38.20966 | 23.75826 | 14465 ft | 400 kts | 174° |
| 2026-05-06 20:18 | 38.18239 | 23.76030 | 13948 ft | 389 kts | 186° |
| 2026-05-06 20:18 | 38.15641 | 23.75206 | 13419 ft | 381 kts | 205° |
| 2026-05-06 20:19 | 38.13406 | 23.73536 | 12920 ft | 371 kts | 215° |
| 2026-05-06 20:19 | 38.11290 | 23.71714 | 12429 ft | 368 kts | 215° |
| 2026-05-06 20:19 | 38.09188 | 23.69902 | 11951 ft | 364 kts | 215° |
| 2026-05-06 20:19 | 38.07099 | 23.68116 | 11487 ft | 360 kts | 215° |
| 2026-05-06 20:20 | 38.05022 | 23.66354 | 11070 ft | 356 kts | 214° |
| 2026-05-06 20:20 | 38.02990 | 23.64642 | 10911 ft | 343 kts | 214° |
| 2026-05-06 20:20 | 38.01030 | 23.62997 | 10762 ft | 331 kts | 214° |
| 2026-05-06 20:20 | 37.99141 | 23.61415 | 10599 ft | 320 kts | 214° |
| 2026-05-06 20:21 | 37.97342 | 23.59908 | 10486 ft | 308 kts | 214° |
| 2026-05-06 20:21 | 37.95585 | 23.58438 | 10353 ft | 297 kts | 214° |
| 2026-05-06 20:21 | 37.93892 | 23.57024 | 10224 ft | 285 kts | 214° |
| 2026-05-06 20:21 | 37.92261 | 23.55662 | 10102 ft | 274 kts | 214° |
| 2026-05-06 20:22 | 37.90701 | 23.54361 | 10002 ft | 263 kts | 214° |
| 2026-05-06 20:22 | 37.89145 | 23.53060 | 9890 ft | 278 kts | 214° |
| 2026-05-06 20:22 | 37.87476 | 23.51666 | 9503 ft | 293 kts | 214° |
| 2026-05-06 20:22 | 37.85766 | 23.50242 | 9186 ft | 294 kts | 214° |
| 2026-05-06 20:23 | 37.84059 | 23.48822 | 8827 ft | 291 kts | 214° |
| 2026-05-06 20:23 | 37.82408 | 23.47450 | 8454 ft | 275 kts | 214° |
| 2026-05-06 20:23 | 37.80710 | 23.46486 | 8176 ft | 266 kts | 189° |
| 2026-05-06 20:23 | 37.78925 | 23.46627 | 7910 ft | 260 kts | 161° |
| 2026-05-06 20:24 | 37.77358 | 23.47782 | 7649 ft | 268 kts | 136° |
| 2026-05-06 20:24 | 37.76235 | 23.49687 | 7430 ft | 270 kts | 115° |
| 2026-05-06 20:24 | 37.75791 | 23.51927 | 7296 ft | 257 kts | 95° |
| 2026-05-06 20:24 | 37.75644 | 23.54153 | 7120 ft | 253 kts | 94° |
| 2026-05-06 20:25 | 37.75498 | 23.56354 | 6831 ft | 251 kts | 95° |
| 2026-05-06 20:25 | 37.75338 | 23.58549 | 6549 ft | 250 kts | 95° |
| 2026-05-06 20:25 | 37.75170 | 23.60730 | 6240 ft | 249 kts | 96° |
| 2026-05-06 20:25 | 37.74998 | 23.62897 | 5947 ft | 247 kts | 96° |
| 2026-05-06 20:26 | 37.74826 | 23.65051 | 5644 ft | 246 kts | 96° |
| 2026-05-06 20:26 | 37.74653 | 23.67194 | 5366 ft | 245 kts | 96° |
| 2026-05-06 20:26 | 37.74480 | 23.69324 | 5086 ft | 243 kts | 96° |
| 2026-05-06 20:26 | 37.74307 | 23.71457 | 4814 ft | 243 kts | 96° |
| 2026-05-06 20:27 | 37.74223 | 23.73562 | 4544 ft | 237 kts | 80° |
| 2026-05-06 20:27 | 37.74872 | 23.75408 | 4343 ft | 228 kts | 47° |
| 2026-05-06 20:27 | 37.76062 | 23.76636 | 4138 ft | 216 kts | 36° |
| 2026-05-06 20:27 | 37.77254 | 23.77742 | 3816 ft | 213 kts | 36° |
| 2026-05-06 20:28 | 37.78441 | 23.78862 | 3546 ft | 207 kts | 37° |
| 2026-05-06 20:28 | 37.79578 | 23.79938 | 3283 ft | 202 kts | 37° |
| 2026-05-06 20:28 | 37.80681 | 23.80986 | 3100 ft | 200 kts | 37° |
| 2026-05-06 20:28 | 37.81797 | 23.82044 | 2854 ft | 202 kts | 37° |
| 2026-05-06 20:29 | 37.82912 | 23.83104 | 2607 ft | 199 kts | 37° |
| 2026-05-06 20:29 | 37.83975 | 23.84113 | 2362 ft | 185 kts | 37° |
| 2026-05-06 20:29 | 37.84969 | 23.85058 | 2098 ft | 172 kts | 37° |
| 2026-05-06 20:29 | 37.85916 | 23.85959 | 1901 ft | 168 kts | 37° |
| 2026-05-06 20:30 | 37.86849 | 23.86846 | 1670 ft | 167 kts | 37° |
| 2026-05-06 20:30 | 37.88702 | 23.88609 | 1228 ft | 166 kts | 37° |
| 2026-05-06 20:30 | 37.89611 | 23.89475 | 1005 ft | 160 kts | 36° |
| 2026-05-06 20:31 | 37.90480 | 23.90301 | 780 ft | 157 kts | 36° |
| 2026-05-06 20:31 | 37.91348 | 23.91131 | 562 ft | 156 kts | 36° |
| 2026-05-06 20:31 | 37.92200 | 23.91947 | 377 ft | 151 kts | 37° |
| 2026-05-06 20:31 | 37.93022 | 23.92724 | 301 ft | 138 kts | 36° |
| 2026-05-06 20:32 | 37.93487 | 23.93170 | 300 ft | 52 kts | 43° |
| 2026-05-06 20:32 | 37.93622 | 23.93449 | 302 ft | 18 kts | 83° |
| 2026-05-06 20:32 | 37.93534 | 23.93479 | 307 ft | 4 kts | 214° |
| 2026-05-06 20:32 | 37.93518 | 23.93465 | 306 ft | 3 kts | 214° |
| 2026-05-06 20:33 | 37.93498 | 23.93448 | 306 ft | 4 kts | 212° |
| 2026-05-06 20:33 | 37.93480 | 23.93436 | 306 ft | 0 kts | 207° |
| 2026-05-06 20:34 | 37.93478 | 23.93436 | 307 ft | 2 kts | 204° |
| 2026-05-06 20:34 | 37.93429 | 23.93459 | 306 ft | 13 kts | 137° |
| 2026-05-06 20:34 | 37.93346 | 23.93584 | 307 ft | 23 kts | 126° |
| 2026-05-06 20:35 | 37.93249 | 23.93741 | 307 ft | 23 kts | 128° |
| 2026-05-06 20:35 | 37.93152 | 23.93906 | 308 ft | 23 kts | 127° |
| 2026-05-06 20:35 | 37.93026 | 23.93983 | 308 ft | 23 kts | 211° |
| 2026-05-06 20:35 | 37.92896 | 23.93864 | 308 ft | 23 kts | 216° |
| 2026-05-06 20:36 | 37.92774 | 23.93931 | 308 ft | 23 kts | 119° |
| 2026-05-06 20:36 | 37.92698 | 23.94071 | 307 ft | 12 kts | 150° |
| 2026-05-06 20:36 | 37.92650 | 23.94052 | 308 ft | 6 kts | 219° |
| 2026-05-06 20:36 | 37.92628 | 23.94030 | 309 ft | 1 kts | 218° |
| 2026-05-06 20:37 | 37.92624 | 23.94026 | 309 ft | 1 kts | 218° |
| 2026-05-06 20:37 | 37.92623 | 23.94025 | 309 ft | 0 kts | 218° |